Time;durP1;ratioP1;P1;durP2;ratioP2;P2;SDS_P1;SDS_P2;PMS_P1;PMS_P2;Temp;Humidity;BMP_temperature;BMP_pressure;BME280_temperature;BME280_humidity;BME280_pressure;Samples;Min_cycle;Max_cycle;Signal;HPM_P1;HPM_P2
2022/04/21 00:00:13;;;;;;;43.35;17.95;;;;;;;;;;5074701;28;20032;-81
2022/04/21 00:02:38;;;;;;;34.22;14.48;;;;;;;;;;5074792;28;20025;-81
2022/04/21 00:05:05;;;;;;;38.08;16.33;;;;;;;;;;5056896;28;20428;-81
2022/04/21 00:07:33;;;;;;;40.55;16.45;;;;;;;;;;5040360;28;20107;-80
2022/04/21 00:09:58;;;;;;;36.85;15.57;;;;;;;;;;5067801;28;20376;-80
2022/04/21 00:12:24;;;;;;;35.63;16.10;;;;;;;;;;5073860;28;20040;-80
2022/04/21 00:14:49;;;;;;;38.25;16.50;;;;;;;;;;5074584;28;20024;-80
2022/04/21 00:17:15;;;;;;;35.67;16.83;;;;;;;;;;5074599;28;20375;-80
2022/04/21 00:19:40;;;;;;;37.80;16.10;;;;;;;;;;5056082;28;20070;-80
2022/04/21 00:24:50;;;;;;;35.97;16.40;;;;;;;;;;5074519;28;20464;-80
2022/04/21 00:27:15;;;;;;;35.90;15.57;;;;;;;;;;5074686;28;20032;-80
2022/04/21 00:29:41;;;;;;;38.63;16.63;;;;;;;;;;5082576;28;20507;-81
2022/04/21 00:32:06;;;;;;;41.10;18.58;;;;;;;;;;5059396;28;20062;-80
2022/04/21 00:34:32;;;;;;;47.17;18.52;;;;;;;;;;5074296;28;20024;-81
2022/04/21 00:36:58;;;;;;;40.97;18.55;;;;;;;;;;5056469;28;20024;-81
2022/04/21 00:39:24;;;;;;;51.28;19.27;;;;;;;;;;5074482;28;20464;-78
2022/04/21 00:41:55;;;;;;;43.25;18.13;;;;;;;;;;5074238;28;20437;-78
2022/04/21 00:44:21;;;;;;;39.40;17.27;;;;;;;;;;5056378;28;20064;-78
2022/04/21 00:46:46;;;;;;;43.50;18.85;;;;;;;;;;5074174;28;20416;-77
2022/04/21 00:49:12;;;;;;;46.33;19.85;;;;;;;;;;5074139;28;20024;-78
2022/04/21 00:51:37;;;;;;;44.15;19.85;;;;;;;;;;5051560;28;20469;-80
2022/04/21 00:54:03;;;;;;;45.30;18.58;;;;;;;;;;5073849;28;20063;-81
2022/04/21 00:56:28;;;;;;;50.55;19.30;;;;;;;;;;5073943;28;20117;-81
2022/04/21 00:58:54;;;;;;;52.50;19.73;;;;;;;;;;5074094;28;20499;-80
2022/04/21 01:04:04;;;;;;;46.70;18.90;;;;;;;;;;5044800;28;20145;-80
2022/04/21 01:06:29;;;;;;;42.03;18.40;;;;;;;;;;5056129;28;20476;-80
2022/04/21 01:08:55;;;;;;;46.17;19.52;;;;;;;;;;5073660;28;20025;-80
2022/04/21 01:11:21;;;;;;;44.40;19.10;;;;;;;;;;5080547;28;20021;-78
2022/04/21 01:13:47;;;;;;;49.55;20.40;;;;;;;;;;5042154;28;20016;-78
2022/04/21 01:16:13;;;;;;;49.35;21.33;;;;;;;;;;5074482;28;20016;-80
2022/04/21 01:18:40;;;;;;;49.38;20.17;;;;;;;;;;5052488;28;20505;-81
2022/04/21 01:21:06;;;;;;;45.70;20.15;;;;;;;;;;5053669;28;20405;-80
2022/04/21 01:23:31;;;;;;;48.38;20.67;;;;;;;;;;5053564;28;20031;-80
2022/04/21 01:25:57;;;;;;;49.22;20.10;;;;;;;;;;5053776;28;20103;-80
2022/04/21 01:28:25;;;;;;;49.28;21.08;;;;;;;;;;5052604;28;20029;-80
2022/04/21 01:30:54;;;;;;;46.47;20.13;;;;;;;;;;5053386;28;20032;-80
2022/04/21 01:33:20;;;;;;;44.15;20.20;;;;;;;;;;5069686;28;20120;-81
2022/04/21 01:35:45;;;;;;;48.97;20.67;;;;;;;;;;5056066;28;20120;-80
2022/04/21 01:41:09;;;;;;;42.90;19.75;;;;;;;;;;5057384;28;20486;-80
2022/04/21 01:43:40;;;;;;;49.35;19.95;;;;;;;;;;5057349;28;20111;-80
2022/04/21 01:46:05;;;;;;;;;;;;;;;;;;5057824;28;20470;-80
2022/04/21 01:48:31;;;;;;;45.58;20.83;;;;;;;;;;5057584;28;19943;-78
2022/04/21 01:50:56;;;;;;;46.63;20.67;;;;;;;;;;5057624;28;20174;-78
2022/04/21 01:53:22;;;;;;;47.67;20.63;;;;;;;;;;5065524;28;20033;-78
2022/04/21 01:55:48;;;;;;;49.00;20.02;;;;;;;;;;5059220;28;20029;-78
2022/04/21 01:58:13;;;;;;;47.03;20.42;;;;;;;;;;5057540;28;20033;-78
2022/04/21 02:00:40;;;;;;;52.80;21.65;;;;;;;;;;5057073;28;20064;-78
2022/04/21 02:03:05;;;;;;;46.35;21.60;;;;;;;;;;5057146;28;20051;-78
2022/04/21 02:05:31;;;;;;;45.60;20.15;;;;;;;;;;5055701;28;20029;-78
2022/04/21 02:07:57;;;;;;;42.15;18.92;;;;;;;;;;5057023;28;20037;-79
2022/04/21 02:10:22;;;;;;;47.42;20.27;;;;;;;;;;5039490;28;20045;-79
2022/04/21 02:12:48;;;;;;;46.75;19.88;;;;;;;;;;5056962;28;20082;-78
2022/04/21 02:15:17;;;;;;;45.67;20.10;;;;;;;;;;5066534;28;20343;-80
2022/04/21 02:17:43;;;;;;;45.42;19.70;;;;;;;;;;5055744;28;20028;-80
2022/04/21 02:20:10;;;;;;;49.03;20.05;;;;;;;;;;5075330;28;20135;-80
2022/04/21 02:22:35;;;;;;;53.47;20.33;;;;;;;;;;5076722;28;20170;-78
2022/04/21 02:25:04;;;;;;;43.92;19.75;;;;;;;;;;5076913;28;20115;-77
2022/04/21 02:27:30;;;;;;;52.28;20.92;;;;;;;;;;5077218;28;20037;-81
2022/04/21 02:29:55;;;;;;;46.17;20.27;;;;;;;;;;5075257;28;20388;-80
2022/04/21 02:32:21;;;;;;;54.72;21.65;;;;;;;;;;5076601;28;20032;-80
2022/04/21 02:34:47;;;;;;;42.50;19.88;;;;;;;;;;5080313;28;20153;-81
2022/04/21 02:37:12;;;;;;;47.58;19.05;;;;;;;;;;5079402;28;20090;-81
2022/04/21 02:39:38;;;;;;;44.78;20.17;;;;;;;;;;5058585;28;20361;-81
2022/04/21 02:42:04;;;;;;;49.55;19.63;;;;;;;;;;5076304;28;20028;-81
2022/04/21 02:44:30;;;;;;;45.05;20.42;;;;;;;;;;5076762;28;20107;-81
2022/04/21 02:46:57;;;;;;;42.42;19.48;;;;;;;;;;5076861;28;20016;-80
2022/04/21 02:49:22;;;;;;;49.90;20.10;;;;;;;;;;5058157;28;20024;-81
2022/04/21 02:51:48;;;;;;;53.72;21.90;;;;;;;;;;5076076;28;20166;-82
2022/04/21 02:59:41;;;;;;;43.75;19.02;;;;;;;;;;5075997;28;20480;-80
2022/04/21 03:02:07;;;;;;;44.83;19.60;;;;;;;;;;5041513;28;20021;-80
2022/04/21 03:04:32;;;;;;;46.80;18.98;;;;;;;;;;5057784;28;20028;-81
2022/04/21 03:06:58;;;;;;;43.33;19.27;;;;;;;;;;5076182;28;20032;-81
2022/04/21 03:09:23;;;;;;;43.28;18.95;;;;;;;;;;5075843;28;20036;-81
2022/04/21 03:11:49;;;;;;;41.83;18.60;;;;;;;;;;5075757;28;20028;-81
2022/04/21 03:14:15;;;;;;;47.78;19.25;;;;;;;;;;5075827;28;20074;-78
2022/04/21 03:16:40;;;;;;;47.58;19.05;;;;;;;;;;5080867;28;20028;-78
2022/04/21 03:19:05;;;;;;;43.70;18.75;;;;;;;;;;5076110;28;20044;-81
2022/04/21 03:24:21;;;;;;;47.70;19.63;;;;;;;;;;5075582;28;20504;-81
2022/04/21 03:26:51;;;;;;;51.28;20.23;;;;;;;;;;5075329;28;20085;-81
2022/04/21 03:29:16;;;;;;;49.97;21.65;;;;;;;;;;5075430;28;20032;-80
2022/04/21 03:31:43;;;;;;;49.10;22.08;;;;;;;;;;5075207;28;20111;-81
2022/04/21 03:34:13;;;;;;;55.10;22.50;;;;;;;;;;5075439;28;20525;-80
2022/04/21 03:36:44;;;;;;;72.38;33.08;;;;;;;;;;5078001;28;20048;-83
2022/04/21 03:39:10;;;;;;;83.45;36.40;;;;;;;;;;5081921;28;20032;-80
2022/04/21 03:41:36;;;;;;;68.75;29.52;;;;;;;;;;5075191;28;20086;-80
2022/04/21 03:44:02;;;;;;;68.82;28.77;;;;;;;;;;5075141;28;20028;-80
2022/04/21 03:46:27;;;;;;;93.50;31.60;;;;;;;;;;5074992;28;20078;-81
2022/04/21 03:48:53;;;;;;;129.95;36.88;;;;;;;;;;5075029;28;20458;-81
2022/04/21 03:51:18;;;;;;;180.93;44.30;;;;;;;;;;5075096;28;20043;-80
2022/04/21 03:53:43;;;;;;;125.97;36.95;;;;;;;;;;5074666;28;20443;-81
2022/04/21 03:56:09;;;;;;;121.68;36.80;;;;;;;;;;5075569;28;20035;-81
2022/04/21 03:58:35;;;;;;;123.50;35.33;;;;;;;;;;5083782;28;20024;-80
2022/04/21 04:01:00;;;;;;;134.55;38.90;;;;;;;;;;5076053;28;20033;-80
2022/04/21 04:03:26;;;;;;;124.32;34.90;;;;;;;;;;5057124;28;20035;-81
2022/04/21 04:05:51;;;;;;;133.25;37.72;;;;;;;;;;5074701;28;20127;-81
2022/04/21 04:11:01;;;;;;;103.90;35.03;;;;;;;;;;5074621;28;20040;-78
2022/04/21 04:13:26;;;;;;;91.82;34.15;;;;;;;;;;5074507;28;20032;-78
2022/04/21 04:15:53;;;;;;;87.55;31.35;;;;;;;;;;5074297;28;20032;-80
2022/04/21 04:18:19;;;;;;;85.03;34.25;;;;;;;;;;5075749;28;20060;-80
2022/04/21 04:20:45;;;;;;;92.28;36.05;;;;;;;;;;5075245;28;20040;-79
2022/04/21 04:23:14;;;;;;;84.50;34.47;;;;;;;;;;5074146;28;20119;-76
2022/04/21 04:25:39;;;;;;;81.50;33.05;;;;;;;;;;5074218;28;20024;-78
2022/04/21 04:28:05;;;;;;;80.15;30.50;;;;;;;;;;5073150;28;20123;-77
2022/04/21 04:30:31;;;;;;;69.40;30.55;;;;;;;;;;5073695;28;20025;-76
2022/04/21 04:32:57;;;;;;;60.65;28.38;;;;;;;;;;5056768;28;20033;-77
2022/04/21 04:35:24;;;;;;;59.22;28.00;;;;;;;;;;5056618;28;20032;-77
2022/04/21 04:37:51;;;;;;;58.70;27.58;;;;;;;;;;5073927;28;20115;-77
2022/04/21 04:40:17;;;;;;;64.22;29.52;;;;;;;;;;5060582;28;20053;-78
2022/04/21 04:42:42;;;;;;;63.65;28.85;;;;;;;;;;5073667;28;20062;-79
2022/04/21 04:47:52;;;;;;;60.97;28.38;;;;;;;;;;5071898;28;20032;-78
2022/04/21 04:50:17;;;;;;;67.95;30.27;;;;;;;;;;5073544;28;20032;-78
2022/04/21 04:52:44;;;;;;;63.83;29.15;;;;;;;;;;5092663;28;20365;-75
2022/04/21 04:55:09;;;;;;;60.50;29.08;;;;;;;;;;5066748;28;20373;-79
2022/04/21 04:57:36;;;;;;;52.70;25.65;;;;;;;;;;5090463;28;20035;-78
2022/04/21 05:00:03;;;;;;;57.22;26.00;;;;;;;;;;5084350;28;20031;-79
2022/04/21 05:02:29;;;;;;;67.43;31.33;;;;;;;;;;5091294;28;20040;-81
2022/04/21 05:04:54;;;;;;;41.88;20.55;;;;;;;;;;5074069;28;20038;-79
2022/04/21 05:07:23;;;;;;;44.72;20.73;;;;;;;;;;5076774;28;20028;-81
2022/04/21 05:09:48;;;;;;;50.85;21.45;;;;;;;;;;5076107;28;20100;-76
2022/04/21 05:12:14;;;;;;;38.65;19.02;;;;;;;;;;5089081;28;20860;-81
2022/04/21 05:14:40;;;;;;;38.28;17.77;;;;;;;;;;5082765;28;20024;-81
2022/04/21 05:17:05;;;;;;;36.92;16.52;;;;;;;;;;5095989;28;20456;-79
2022/04/21 05:19:31;;;;;;;29.80;14.40;;;;;;;;;;5089336;28;20059;-79
2022/04/21 05:22:00;;;;;;;29.23;13.73;;;;;;;;;;5038754;28;20090;-79
2022/04/21 05:24:26;;;;;;;28.23;14.38;;;;;;;;;;5072772;28;20023;-80
2022/04/21 05:26:52;;;;;;;25.20;13.73;;;;;;;;;;5077363;28;20036;-79
2022/04/21 05:32:04;;;;;;;25.20;12.88;;;;;;;;;;5104448;28;20031;-88
2022/04/21 05:34:30;;;;;;;23.23;12.95;;;;;;;;;;5102433;28;20028;-81
2022/04/21 05:36:58;;;;;;;24.90;13.77;;;;;;;;;;5094583;28;20130;-88
2022/04/21 05:39:24;;;;;;;23.13;13.10;;;;;;;;;;5099413;28;20084;-85
2022/04/21 05:41:51;;;;;;;22.63;13.43;;;;;;;;;;5108087;28;20059;-81
2022/04/21 05:44:18;;;;;;;21.58;12.95;;;;;;;;;;5079375;28;20102;-83
2022/04/21 05:46:44;;;;;;;25.75;13.32;;;;;;;;;;5054201;28;20042;-85
2022/04/21 05:49:11;;;;;;;24.65;14.05;;;;;;;;;;5099944;28;20055;-83
2022/04/21 05:51:41;;;;;;;26.58;13.98;;;;;;;;;;5083060;28;20032;-82
2022/04/21 05:54:09;;;;;;;21.00;14.13;;;;;;;;;;5095739;28;20036;-84
2022/04/21 06:03:28;;;;;;;29.50;15.82;;;;;;;;;;5563276;22;22659;-86
2022/04/21 06:05:54;;;;;;;28.38;16.42;;;;;;;;;;5055356;28;20096;-88
2022/04/21 06:08:20;;;;;;;31.33;15.88;;;;;;;;;;5061354;28;20029;-89
2022/04/21 06:10:46;;;;;;;26.38;14.80;;;;;;;;;;5025285;28;20021;-86
2022/04/21 06:13:15;;;;;;;28.92;16.17;;;;;;;;;;5029199;28;20033;-84
2022/04/21 06:15:44;;;;;;;28.90;16.08;;;;;;;;;;5051638;28;20020;-86
2022/04/21 06:18:10;;;;;;;29.05;15.63;;;;;;;;;;5023077;28;20037;-85
2022/04/21 06:20:36;;;;;;;30.33;16.88;;;;;;;;;;5058847;28;20049;-84
2022/04/21 06:23:06;;;;;;;29.33;16.83;;;;;;;;;;5058939;28;20025;-87
2022/04/21 06:25:32;;;;;;;28.92;16.63;;;;;;;;;;5028628;28;20107;-83
2022/04/21 06:27:58;;;;;;;32.35;16.08;;;;;;;;;;5063045;28;20315;-81
2022/04/21 06:30:24;;;;;;;32.33;16.77;;;;;;;;;;5044459;28;20036;-88
2022/04/21 06:32:49;;;;;;;31.70;17.38;;;;;;;;;;5063370;28;20087;-84
2022/04/21 06:35:15;;;;;;;35.47;18.25;;;;;;;;;;5046039;28;20024;-82
2022/04/21 06:37:42;;;;;;;32.85;18.10;;;;;;;;;;5066065;28;20185;-82
2022/04/21 06:40:10;;;;;;;38.88;17.02;;;;;;;;;;5022961;28;20051;-80
2022/04/21 06:42:37;;;;;;;32.65;17.45;;;;;;;;;;5031249;28;20124;-87
2022/04/21 06:48:08;;;;;;;35.00;17.73;;;;;;;;;;5057113;28;20063;-87
2022/04/21 06:50:38;;;;;;;37.20;19.25;;;;;;;;;;5042116;28;20029;-85
2022/04/21 06:53:09;;;;;;;38.70;17.67;;;;;;;;;;5030922;28;20048;-84
2022/04/21 06:55:35;;;;;;;35.00;19.25;;;;;;;;;;5057500;28;20227;-82
2022/04/21 06:58:01;;;;;;;34.97;17.90;;;;;;;;;;5060891;28;20482;-86
2022/04/21 07:00:27;;;;;;;38.45;17.95;;;;;;;;;;5030939;28;21486;-79
2022/04/21 07:02:55;;;;;;;43.00;18.80;;;;;;;;;;5029426;28;20123;-79
2022/04/21 07:05:22;;;;;;;37.60;18.30;;;;;;;;;;5033490;28;20041;-81
2022/04/21 07:07:47;;;;;;;37.42;18.88;;;;;;;;;;5011363;28;20032;-77
2022/04/21 07:10:13;;;;;;;38.50;19.05;;;;;;;;;;5037402;28;20486;-81
2022/04/21 07:12:38;;;;;;;37.80;18.65;;;;;;;;;;5035501;28;20464;-81
2022/04/21 07:15:05;;;;;;;34.72;18.35;;;;;;;;;;5034343;28;20025;-81
2022/04/21 07:17:31;;;;;;;41.95;18.70;;;;;;;;;;5045485;28;20029;-81
2022/04/21 07:19:58;;;;;;;37.95;19.52;;;;;;;;;;5037314;28;20456;-83
2022/04/21 07:22:27;;;;;;;39.63;18.77;;;;;;;;;;5060624;28;20013;-82
2022/04/21 07:24:53;;;;;;;37.55;19.45;;;;;;;;;;5044057;28;20033;-83
2022/04/21 07:27:18;;;;;;;39.25;20.20;;;;;;;;;;5056402;28;20499;-83
2022/04/21 07:29:44;;;;;;;41.42;19.38;;;;;;;;;;5051578;28;20037;-81
2022/04/21 07:32:10;;;;;;;39.83;19.02;;;;;;;;;;5035559;28;20029;-84
2022/04/21 07:34:36;;;;;;;39.17;20.13;;;;;;;;;;5053982;28;20029;-82
2022/04/21 07:37:02;;;;;;;40.25;20.63;;;;;;;;;;5045523;28;20096;-87
2022/04/21 07:39:27;;;;;;;37.70;19.77;;;;;;;;;;5069799;28;20031;-91
2022/04/21 07:41:53;;;;;;;37.35;18.50;;;;;;;;;;5054460;28;20025;-86
2022/04/21 07:44:18;;;;;;;39.22;20.02;;;;;;;;;;5070478;28;20078;-83
2022/04/21 07:46:44;;;;;;;36.60;20.40;;;;;;;;;;5059191;28;20476;-87
2022/04/21 07:53:12;;;;;;;46.83;21.88;;;;;;;;;;5037980;28;20511;-87
2022/04/21 07:54:40;;;;;;;43.15;21.42;;;;;;;;;;5006248;28;20075;-87
2022/04/21 07:57:05;;;;;;;38.58;20.92;;;;;;;;;;5015914;28;20060;-87
2022/04/21 07:59:31;;;;;;;41.38;22.15;;;;;;;;;;5053427;28;20041;-85
2022/04/21 08:01:56;;;;;;;42.92;22.58;;;;;;;;;;5031564;28;20037;-85
2022/04/21 08:04:23;;;;;;;42.78;21.48;;;;;;;;;;5043085;28;20203;-85
2022/04/21 08:06:49;;;;;;;46.60;22.08;;;;;;;;;;5059938;28;20059;-84
2022/04/21 08:09:24;;;;;;;40.47;21.80;;;;;;;;;;5058623;28;20032;-85
2022/04/21 08:11:50;;;;;;;40.15;21.52;;;;;;;;;;5054795;28;20381;-87
2022/04/21 08:14:16;;;;;;;45.63;21.38;;;;;;;;;;5047082;28;20036;-81
2022/04/21 08:16:44;;;;;;;43.72;21.70;;;;;;;;;;5053751;28;20033;-80
2022/04/21 08:19:10;;;;;;;43.33;20.77;;;;;;;;;;5041350;28;20029;-81
2022/04/21 08:21:37;;;;;;;39.15;20.67;;;;;;;;;;5073057;28;20104;-83
2022/04/21 08:32:36;;;;;;;41.90;21.70;;;;;;;;;;5054258;28;20118;-76
2022/04/21 08:35:03;;;;;;;37.10;19.92;;;;;;;;;;5052278;28;20114;-78
2022/04/21 08:37:28;;;;;;;37.25;20.27;;;;;;;;;;5056754;28;20031;-79
2022/04/21 08:39:57;;;;;;;38.67;18.95;;;;;;;;;;5053082;28;20028;-78
2022/04/21 08:42:22;;;;;;;36.10;19.38;;;;;;;;;;5061521;28;20040;-78
2022/04/21 08:44:48;;;;;;;31.17;17.25;;;;;;;;;;5062698;28;20067;-76
2022/04/21 08:47:14;;;;;;;30.20;17.15;;;;;;;;;;5060271;28;20108;-77
2022/04/21 08:49:40;;;;;;;30.77;17.00;;;;;;;;;;5059453;28;20082;-77
2022/04/21 08:52:06;;;;;;;23.98;13.85;;;;;;;;;;5027191;28;20058;-78
2022/04/21 08:54:33;;;;;;;19.90;12.82;;;;;;;;;;5054311;28;20040;-77
2022/04/21 08:56:59;;;;;;;21.27;11.77;;;;;;;;;;5042866;28;20036;-76
2022/04/21 08:59:25;;;;;;;22.88;13.32;;;;;;;;;;5041773;28;20041;-77
2022/04/21 09:01:51;;;;;;;24.95;14.82;;;;;;;;;;5060143;28;20587;-77
2022/04/21 09:04:16;;;;;;;28.63;15.38;;;;;;;;;;5061236;28;20139;-78
2022/04/21 09:06:42;;;;;;;31.67;15.10;;;;;;;;;;5061464;28;20037;-77
2022/04/21 09:09:17;;;;;;;26.73;16.33;;;;;;;;;;5059340;28;20056;-76
2022/04/21 09:11:44;;;;;;;25.92;15.88;;;;;;;;;;5057879;28;20036;-77
2022/04/21 09:14:16;;;;;;;28.10;15.73;;;;;;;;;;5057589;28;20028;-75
2022/04/21 09:16:41;;;;;;;28.05;15.95;;;;;;;;;;5056316;28;20035;-74
2022/04/21 09:19:07;;;;;;;28.83;16.45;;;;;;;;;;5059416;28;20029;-75
2022/04/21 09:21:36;;;;;;;25.00;14.85;;;;;;;;;;5053783;28;20052;-76
2022/04/21 09:24:18;;;;;;;25.80;13.88;;;;;;;;;;5055320;28;20360;-77
2022/04/21 09:26:47;;;;;;;17.05;11.00;;;;;;;;;;5042364;28;20123;-77
2022/04/21 09:29:29;;;;;;;18.65;10.70;;;;;;;;;;5028939;28;20039;-76
2022/04/21 09:31:57;;;;;;;15.63;10.57;;;;;;;;;;5060068;28;20029;-77
2022/04/21 09:34:23;;;;;;;16.45;10.68;;;;;;;;;;5061464;28;20040;-78
2022/04/21 09:36:48;;;;;;;16.42;10.90;;;;;;;;;;5060030;28;20446;-82
2022/04/21 09:39:18;;;;;;;16.20;9.98;;;;;;;;;;5041427;28;20033;-84
2022/04/21 09:41:48;;;;;;;20.23;12.60;;;;;;;;;;5031671;28;20035;-83
2022/04/21 09:46:59;;;;;;;16.92;11.02;;;;;;;;;;5055716;28;20043;-81
2022/04/21 09:49:37;;;;;;;16.10;10.65;;;;;;;;;;5070643;28;20033;-89
2022/04/21 09:52:03;;;;;;;16.83;11.40;;;;;;;;;;5078152;28;20048;-84
2022/04/21 09:54:34;;;;;;;17.35;11.65;;;;;;;;;;5073161;28;20016;-83
2022/04/21 09:57:00;;;;;;;17.48;12.23;;;;;;;;;;5012824;28;20037;-82
2022/04/21 09:59:26;;;;;;;16.98;11.07;;;;;;;;;;5031317;28;20435;-83
2022/04/21 10:01:51;;;;;;;15.63;11.43;;;;;;;;;;5038215;28;20028;-82
2022/04/21 10:04:18;;;;;;;15.10;10.20;;;;;;;;;;5056488;28;20049;-84
2022/04/21 10:06:47;;;;;;;18.88;12.07;;;;;;;;;;5040590;28;20128;-85
2022/04/21 10:09:13;;;;;;;22.08;13.75;;;;;;;;;;5062458;28;20029;-85
2022/04/21 10:11:43;;;;;;;17.90;10.63;;;;;;;;;;5031407;28;20043;-85
2022/04/21 10:14:15;;;;;;;18.88;11.40;;;;;;;;;;5051408;28;20092;-90
2022/04/21 10:16:42;;;;;;;17.52;11.60;;;;;;;;;;5069374;28;20041;-87
2022/04/21 10:19:21;;;;;;;56.75;41.85;;;;;;;;;;5051510;28;20033;-85
2022/04/21 10:21:53;;;;;;;14.93;10.27;;;;;;;;;;5031369;28;20051;-86
2022/04/21 10:24:22;;;;;;;14.32;10.00;;;;;;;;;;5061255;28;20032;-85
2022/04/21 10:26:49;;;;;;;19.23;11.98;;;;;;;;;;5062716;28;20117;-82
2022/04/21 10:29:15;;;;;;;21.45;12.43;;;;;;;;;;5031856;28;20057;-87
2022/04/21 10:31:51;;;;;;;25.73;16.67;;;;;;;;;;5067826;28;20338;-90
2022/04/21 10:34:38;;;;;;;25.92;14.90;;;;;;;;;;5053331;28;20035;-86
2022/04/21 10:37:22;;;;;;;20.63;12.70;;;;;;;;;;5043657;28;20088;-89
2022/04/21 10:40:11;;;;;;;22.40;13.60;;;;;;;;;;5053334;28;20809;-87
2022/04/21 10:42:52;;;;;;;32.55;18.67;;;;;;;;;;5059011;28;20048;-86
2022/04/21 10:45:32;;;;;;;30.20;16.77;;;;;;;;;;5049745;28;20162;-85
2022/04/21 10:48:12;;;;;;;21.73;13.77;;;;;;;;;;5035664;28;20018;-85
2022/04/21 10:50:46;;;;;;;43.05;23.42;;;;;;;;;;5031132;28;20064;-86
2022/04/21 10:58:47;;;;;;;27.67;15.48;;;;;;;;;;5028074;28;20433;-89
2022/04/21 11:01:19;;;;;;;22.02;12.95;;;;;;;;;;5041973;28;20029;-85
2022/04/21 11:03:45;;;;;;;25.50;15.85;;;;;;;;;;5040002;28;20025;-85
2022/04/21 11:06:15;;;;;;;20.40;13.10;;;;;;;;;;5020598;28;20037;-86
2022/04/21 11:08:42;;;;;;;20.73;12.70;;;;;;;;;;5014537;28;20053;-89
2022/04/21 11:11:08;;;;;;;26.02;15.75;;;;;;;;;;5026889;28;20039;-88
2022/04/21 11:13:50;;;;;;;40.95;19.83;;;;;;;;;;5045483;28;20029;-84
2022/04/21 11:16:40;;;;;;;24.30;14.38;;;;;;;;;;5062448;28;20194;-90
2022/04/21 11:19:34;;;;;;;24.42;13.20;;;;;;;;;;5039602;28;20362;-85
2022/04/21 11:22:01;;;;;;;25.27;14.32;;;;;;;;;;5024603;28;20059;-83
2022/04/21 11:24:27;;;;;;;19.25;11.35;;;;;;;;;;5056142;28;20036;-82
2022/04/21 11:26:57;;;;;;;18.15;11.02;;;;;;;;;;5005020;28;20075;-80
2022/04/21 11:29:22;;;;;;;22.50;11.40;;;;;;;;;;5036386;28;20097;-81
2022/04/21 11:31:53;;;;;;;20.75;11.23;;;;;;;;;;5036169;28;20111;-82
2022/04/21 11:34:23;;;;;;;15.30;9.75;;;;;;;;;;5040683;28;20053;-79
2022/04/21 11:36:48;;;;;;;16.90;9.98;;;;;;;;;;5025142;28;20105;-82
2022/04/21 11:39:14;;;;;;;15.02;9.80;;;;;;;;;;5019119;28;20457;-81
2022/04/21 11:41:48;;;;;;;17.83;10.68;;;;;;;;;;5035666;28;20439;-81
2022/04/21 11:44:24;;;;;;;17.77;10.75;;;;;;;;;;5069492;28;20025;-81
2022/04/21 11:46:50;;;;;;;17.88;11.13;;;;;;;;;;5053329;28;20452;-80
2022/04/21 11:49:15;;;;;;;16.85;10.30;;;;;;;;;;5054543;28;20115;-80
2022/04/21 11:51:41;;;;;;;18.17;10.05;;;;;;;;;;5054445;28;20105;-82
2022/04/21 11:54:07;;;;;;;19.60;11.05;;;;;;;;;;5073870;28;20029;-83
2022/04/21 11:56:33;;;;;;;22.98;10.90;;;;;;;;;;5027732;28;20037;-82
2022/04/21 11:59:06;;;;;;;19.77;11.13;;;;;;;;;;5055191;28;20036;-82
2022/04/21 12:07:02;;;;;;;30.80;16.30;;;;;;;;;;5034317;28;20513;-79
2022/04/21 12:09:34;;;;;;;22.13;13.25;;;;;;;;;;5032701;28;20024;-79
2022/04/21 12:12:01;;;;;;;18.40;10.82;;;;;;;;;;5030426;28;20057;-81
2022/04/21 12:14:27;;;;;;;20.35;12.02;;;;;;;;;;5018330;28;20079;-78
2022/04/21 12:16:59;;;;;;;26.50;14.77;;;;;;;;;;5058142;28;20037;-78
2022/04/21 12:19:42;;;;;;;30.75;16.70;;;;;;;;;;5051832;28;20027;-78
2022/04/21 12:22:13;;;;;;;19.38;11.77;;;;;;;;;;5051069;28;20423;-78
2022/04/21 12:24:52;;;;;;;13.95;9.13;;;;;;;;;;5035920;28;20024;-78
2022/04/21 12:27:29;;;;;;;14.23;9.20;;;;;;;;;;5034906;28;20029;-79
2022/04/21 12:30:07;;;;;;;15.10;10.10;;;;;;;;;;5051602;28;20035;-79
2022/04/21 12:32:33;;;;;;;16.27;9.70;;;;;;;;;;5051622;28;20025;-80
2022/04/21 12:35:03;;;;;;;19.58;13.13;;;;;;;;;;5052046;28;20021;-79
2022/04/21 12:37:33;;;;;;;18.13;10.70;;;;;;;;;;5047881;28;20549;-79
2022/04/21 12:40:00;;;;;;;20.50;9.75;;;;;;;;;;5019256;28;20029;-79
2022/04/21 12:42:26;;;;;;;15.77;9.95;;;;;;;;;;5053685;28;20029;-80
2022/04/21 12:44:53;;;;;;;14.13;9.38;;;;;;;;;;5052656;28;20032;-79
2022/04/21 12:47:19;;;;;;;17.98;9.98;;;;;;;;;;5053113;28;20039;-80
2022/04/21 12:49:54;;;;;;;16.35;9.80;;;;;;;;;;5053179;28;20082;-79
2022/04/21 12:52:35;;;;;;;17.38;9.48;;;;;;;;;;5054125;28;20429;-79
2022/04/21 12:55:07;;;;;;;15.25;9.25;;;;;;;;;;5052720;28;20029;-80
2022/04/21 12:57:33;;;;;;;14.70;9.13;;;;;;;;;;5058096;28;20040;-80
2022/04/21 12:59:59;;;;;;;15.93;9.50;;;;;;;;;;5053976;28;20044;-79
2022/04/21 13:02:24;;;;;;;16.27;9.90;;;;;;;;;;5053866;28;20029;-80
2022/04/21 13:04:51;;;;;;;15.90;9.32;;;;;;;;;;5035811;28;20048;-79
2022/04/21 13:07:16;;;;;;;15.52;9.57;;;;;;;;;;5052906;28;20060;-78
2022/04/21 13:09:42;;;;;;;15.57;8.90;;;;;;;;;;5052759;28;20110;-80
2022/04/21 13:12:08;;;;;;;13.85;8.68;;;;;;;;;;5053939;28;20111;-79
2022/04/21 13:14:33;;;;;;;13.32;8.75;;;;;;;;;;5052975;28;20029;-80
2022/04/21 13:16:59;;;;;;;13.82;9.63;;;;;;;;;;5069005;28;20036;-79
2022/04/21 13:19:24;;;;;;;16.00;9.52;;;;;;;;;;5056355;28;20047;-79
2022/04/21 13:21:53;;;;;;;14.48;8.98;;;;;;;;;;5053818;28;20021;-80
2022/04/21 13:24:28;;;;;;;12.77;8.90;;;;;;;;;;5052684;28;20032;-79
2022/04/21 13:26:54;;;;;;;14.63;8.45;;;;;;;;;;5020795;28;20032;-81
2022/04/21 13:29:20;;;;;;;16.17;9.73;;;;;;;;;;5040055;28;20401;-80
2022/04/21 13:34:30;;;;;;;12.32;8.30;;;;;;;;;;5057616;28;20090;-79
2022/04/21 13:36:55;;;;;;;12.55;8.32;;;;;;;;;;5060149;28;20008;-79
2022/04/21 13:39:21;;;;;;;14.50;8.32;;;;;;;;;;5065441;28;20029;-81
2022/04/21 13:41:49;;;;;;;13.23;8.82;;;;;;;;;;5057561;28;20442;-81
2022/04/21 13:44:15;;;;;;;13.05;8.55;;;;;;;;;;5056551;28;20025;-79
2022/04/21 13:46:41;;;;;;;15.32;8.45;;;;;;;;;;5056275;28;20373;-81
2022/04/21 13:49:07;;;;;;;12.95;8.40;;;;;;;;;;5056122;28;20094;-80
2022/04/21 13:51:33;;;;;;;14.35;8.65;;;;;;;;;;5056362;28;20151;-79
2022/04/21 13:53:58;;;;;;;15.82;9.43;;;;;;;;;;5057415;28;20053;-81
2022/04/21 13:56:24;;;;;;;17.13;8.88;;;;;;;;;;5056585;28;20037;-80
2022/04/21 13:58:50;;;;;;;13.40;8.55;;;;;;;;;;5066354;28;20060;-79
2022/04/21 14:01:16;;;;;;;15.32;8.57;;;;;;;;;;5056090;28;20075;-79
2022/04/21 14:03:42;;;;;;;16.65;9.02;;;;;;;;;;5039147;28;20049;-80
2022/04/21 14:06:07;;;;;;;14.82;9.15;;;;;;;;;;5057108;28;20066;-80
2022/04/21 14:08:36;;;;;;;13.25;8.80;;;;;;;;;;5057139;28;20613;-81
2022/04/21 14:11:03;;;;;;;15.30;9.50;;;;;;;;;;5039369;28;20452;-79
2022/04/21 14:13:28;;;;;;;14.18;8.90;;;;;;;;;;5057188;28;20021;-81
2022/04/21 14:15:54;;;;;;;16.20;9.50;;;;;;;;;;5022779;28;20441;-80
2022/04/21 14:18:19;;;;;;;16.05;9.75;;;;;;;;;;5058475;28;20096;-80
2022/04/21 14:20:46;;;;;;;14.82;9.10;;;;;;;;;;5062287;28;20040;-80
2022/04/21 14:23:15;;;;;;;15.75;9.55;;;;;;;;;;5038953;28;20044;-80
2022/04/21 14:25:41;;;;;;;18.33;9.45;;;;;;;;;;5056775;28;20438;-80
2022/04/21 14:28:07;;;;;;;17.30;9.13;;;;;;;;;;5038962;28;20044;-81
2022/04/21 14:30:32;;;;;;;16.88;9.55;;;;;;;;;;5056801;28;20033;-80
2022/04/21 14:32:58;;;;;;;13.93;9.73;;;;;;;;;;5022374;28;20117;-80
2022/04/21 14:35:23;;;;;;;14.60;8.95;;;;;;;;;;5038968;28;20029;-81
2022/04/21 14:46:03;;;;;;;14.32;7.70;;;;;;;;;;5027025;28;20047;-81
2022/04/21 14:48:29;;;;;;;15.70;8.43;;;;;;;;;;5056555;28;20025;-81
2022/04/21 14:50:54;;;;;;;12.73;8.07;;;;;;;;;;5038604;28;20025;-80
2022/04/21 14:53:23;;;;;;;13.02;8.00;;;;;;;;;;5056305;28;20351;-80
2022/04/21 14:55:49;;;;;;;15.60;7.88;;;;;;;;;;5056239;28;20050;-79
2022/04/21 14:58:15;;;;;;;16.85;8.38;;;;;;;;;;5038568;28;20029;-80
2022/04/21 15:00:42;;;;;;;12.23;7.60;;;;;;;;;;5063735;28;20028;-80
2022/04/21 15:03:08;;;;;;;17.23;8.30;;;;;;;;;;5059377;28;20048;-81
2022/04/21 15:05:34;;;;;;;15.88;8.75;;;;;;;;;;5055820;28;20107;-80
2022/04/21 15:08:05;;;;;;;16.08;8.65;;;;;;;;;;5038567;28;20194;-80
2022/04/21 15:10:32;;;;;;;14.93;8.32;;;;;;;;;;5038827;28;20029;-81
2022/04/21 15:12:57;;;;;;;32.42;11.05;;;;;;;;;;5038407;28;20055;-80
2022/04/21 15:15:23;;;;;;;18.50;8.48;;;;;;;;;;5037941;28;20591;-80
2022/04/21 15:17:48;;;;;;;13.40;7.65;;;;;;;;;;5055797;28;20110;-80
2022/04/21 15:20:14;;;;;;;13.68;7.57;;;;;;;;;;5037937;28;20120;-79
2022/04/21 15:22:39;;;;;;;11.68;7.15;;;;;;;;;;5046406;28;20361;-80
2022/04/21 15:25:05;;;;;;;15.50;7.38;;;;;;;;;;5055650;28;20108;-79
2022/04/21 15:27:31;;;;;;;12.07;7.40;;;;;;;;;;5055488;28;20453;-80
2022/04/21 15:29:57;;;;;;;10.77;7.05;;;;;;;;;;5037780;28;20029;-80